Pagina principale
METAR-TAF:

METAR-TAF

Aeroporti :

Farnborough, Inghilterra

latitudine: 51-17N, longitudine: 000-46W, altezza: 65 m

Osservazione

Il bollettino è stato emesso 31 minuti fa, alle 02:50 UTC
Vento 7 kt da sud-est, variando fra est e sud/sud-est
Temperature 6°C
Umidità 93%
Pressione 1019 hPa
Visibilità: 4300 m
pioggia debole, foschia

METAR: EGLF 240250Z AUTO 13007KT 100V160 4300 -RA HZ SCT007/// BKN013/// //////TCU 06/05 Q1019 RERA

Ora: 03:21 (03:21 UTC)

Previsione

Il bollettino è stato emesso 10 ore e 19 minuti fa, alle 17:02 UTC
Previsione valida dal 23 alle 18 UTC al 23 alle 20 UTC
Vento 8 kt da ovest/nord-ovest
Visibilità 10 km o più
Nubi sparse ad un'altezza di 4000 ft

TAF: EGLF 231702Z 2318/2320 30008KT 9999 SCT040

Osservazioni e previsioni meteorologiche di più di 4000 aeroporti (messaggi METAR e TAF).

Le stazioni disponibili sono rappresentate dai dischi gialli e rossi sulla carta.

Puntare il mouse per vedere il nome della stazione.

Clicca sopra per visualizzare le osservazioni e previsioni meteorologiche.

Per cambiare la mappa : fare clic sui pulsanti verdi con una croce nera per ingrandire, il pulsante verde con un trattino per diminuire, o sulla freccia verde per le mappe adiacenti.


METAR-TAF: